createdAt,value
2023-04-05T00:00:34.940Z,6.60
2023-04-05T00:03:01.904Z,5.90
2023-04-05T00:05:34.268Z,6.03
2023-04-05T00:08:01.767Z,7.27
2023-04-05T00:10:30.759Z,5.90
2023-04-05T00:12:58.590Z,5.63
2023-04-05T00:15:27.372Z,4.97
2023-04-05T00:17:55.227Z,6.00
2023-04-05T00:20:22.431Z,6.43
2023-04-05T00:22:50.630Z,6.10
2023-04-05T00:25:18.617Z,6.77
2023-04-05T00:27:45.842Z,5.00
2023-04-05T00:30:20.626Z,4.83
2023-04-05T00:32:51.519Z,4.63
2023-04-05T00:35:18.613Z,4.53
2023-04-05T00:37:45.699Z,4.77
2023-04-05T00:40:12.898Z,5.17
2023-04-05T00:42:39.911Z,4.30
2023-04-05T00:45:07.685Z,5.47
2023-04-05T00:47:34.910Z,5.50
2023-04-05T00:50:04.234Z,5.47
2023-04-05T00:52:31.136Z,5.67
2023-04-05T00:54:58.763Z,4.97
2023-04-05T00:57:26.390Z,5.87
2023-04-05T00:59:53.413Z,5.90
2023-04-05T01:02:39.432Z,5.93
2023-04-05T01:05:27.321Z,5.80
2023-04-05T01:08:22.415Z,6.03
2023-04-05T01:10:57.276Z,5.37
2023-04-05T01:13:26.043Z,4.90
2023-04-05T01:15:52.944Z,4.93
2023-04-05T01:18:22.001Z,5.57
2023-04-05T01:21:39.663Z,5.33
2023-04-05T01:24:26.118Z,5.73
2023-04-05T01:27:16.462Z,5.83
2023-04-05T01:30:03.132Z,5.70
2023-04-05T01:33:28.586Z,4.90
2023-04-05T01:36:31.349Z,5.30
2023-04-05T01:38:59.505Z,5.73
2023-04-05T01:41:27.507Z,5.13
2023-04-05T01:43:54.337Z,5.73
2023-04-05T01:46:21.365Z,5.27
2023-04-05T01:48:48.233Z,5.00
2023-04-05T01:51:15.184Z,6.10
2023-04-05T01:53:42.096Z,5.80
2023-04-05T01:56:08.927Z,4.93
2023-04-05T01:58:35.841Z,5.17
2023-04-05T02:01:02.766Z,5.60
2023-04-05T02:03:29.916Z,5.13
2023-04-05T02:05:58.139Z,4.80
2023-04-05T02:08:25.234Z,4.53
2023-04-05T02:10:53.947Z,5.50
2023-04-05T02:13:23.921Z,5.83
2023-04-05T02:15:51.217Z,5.17
2023-04-05T02:18:31.350Z,5.67
2023-04-05T02:21:06.812Z,5.90
2023-04-05T02:23:35.060Z,4.90
2023-04-05T02:26:01.925Z,5.17
2023-04-05T02:28:29.194Z,4.87
2023-04-05T02:30:56.175Z,4.83
2023-04-05T02:33:23.315Z,5.13
2023-04-05T02:35:52.093Z,4.43
2023-04-05T02:38:19.001Z,4.80
2023-04-05T02:40:52.095Z,4.80
2023-04-05T02:43:18.971Z,4.40
2023-04-05T02:45:47.146Z,4.50
2023-04-05T02:48:14.109Z,4.83
2023-04-05T02:50:42.001Z,4.60
2023-04-05T02:53:09.356Z,5.20
2023-04-05T02:55:36.227Z,4.87
2023-04-05T02:58:03.097Z,4.80
2023-04-05T03:00:29.966Z,5.10
2023-04-05T03:02:56.835Z,4.87
2023-04-05T03:05:23.725Z,4.87
2023-04-05T03:07:52.145Z,5.00
2023-04-05T03:10:22.673Z,4.70
2023-04-05T03:12:51.500Z,4.50
2023-04-05T03:15:18.418Z,4.30
2023-04-05T03:17:45.932Z,4.73
2023-04-05T03:20:13.640Z,4.67
2023-04-05T03:22:41.666Z,4.20
2023-04-05T03:25:08.774Z,4.20
2023-04-05T03:27:36.730Z,4.70
2023-04-05T03:30:04.295Z,4.47
2023-04-05T03:32:31.247Z,5.30
2023-04-05T03:34:58.153Z,4.67
2023-04-05T03:37:25.041Z,5.23
2023-04-05T03:39:51.895Z,4.57
2023-04-05T03:42:18.734Z,4.80
2023-04-05T03:44:45.645Z,5.00
2023-04-05T03:47:13.249Z,4.77
2023-04-05T03:49:41.155Z,4.43
2023-04-05T03:52:08.655Z,4.80
2023-04-05T03:54:35.922Z,4.27
2023-04-05T03:57:03.232Z,5.10
2023-04-05T03:59:30.231Z,4.40
2023-04-05T04:01:57.221Z,4.93
2023-04-05T04:04:24.080Z,5.30
2023-04-05T04:06:51.568Z,5.60
2023-04-05T04:09:18.445Z,5.20
2023-04-05T04:11:45.327Z,4.50
2023-04-05T04:14:12.176Z,5.20
2023-04-05T04:16:39.074Z,5.10
2023-04-05T04:19:05.957Z,5.30
2023-04-05T04:21:33.765Z,9.03
2023-04-05T04:24:00.979Z,8.77
2023-04-05T04:26:29.128Z,8.73
2023-04-05T04:28:56.812Z,9.53
2023-04-05T04:31:23.821Z,9.13
2023-04-05T04:33:51.564Z,7.10
2023-04-05T04:36:26.603Z,6.20
2023-04-05T04:38:53.816Z,6.83
2023-04-05T04:41:22.648Z,6.37
2023-04-05T04:43:49.530Z,7.10
2023-04-05T04:46:19.110Z,6.77
2023-04-05T04:48:47.332Z,8.70
2023-04-05T04:51:14.169Z,9.73
2023-04-05T04:53:41.066Z,10.63
2023-04-05T04:56:08.836Z,10.33
2023-04-05T04:58:35.981Z,9.30
2023-04-05T05:01:11.003Z,8.67
2023-04-05T05:03:41.315Z,9.57
2023-04-05T05:06:08.669Z,9.03
2023-04-05T05:08:35.589Z,10.00
2023-04-05T05:11:02.721Z,10.40
2023-04-05T05:13:29.912Z,8.40
2023-04-05T05:15:58.043Z,7.83
2023-04-05T05:18:24.906Z,7.77
2023-04-05T05:20:52.754Z,7.43
2023-04-05T05:23:21.204Z,7.33
2023-04-05T05:25:48.171Z,7.30
2023-04-05T05:28:15.288Z,7.40
2023-04-05T05:30:42.470Z,7.93
2023-04-05T05:33:09.769Z,7.47
2023-04-05T05:35:38.141Z,6.97
2023-04-05T05:38:06.279Z,6.57
2023-04-05T05:40:34.496Z,6.30
2023-04-05T05:43:01.367Z,7.00
2023-04-05T05:45:28.388Z,5.93
2023-04-05T05:47:56.800Z,7.03
2023-04-05T05:50:23.771Z,6.87
2023-04-05T05:52:51.504Z,7.80
2023-04-05T05:55:18.410Z,6.23
2023-04-05T05:57:45.411Z,6.97
2023-04-05T06:00:13.293Z,6.87
2023-04-05T06:02:40.631Z,7.60
2023-04-05T06:05:08.948Z,8.03
2023-04-05T06:07:38.001Z,7.23
2023-04-05T06:10:06.324Z,7.43
2023-04-05T06:12:33.864Z,7.40
2023-04-05T06:15:02.251Z,6.80
2023-04-05T06:17:29.223Z,7.13
2023-04-05T06:19:56.220Z,7.13
2023-04-05T06:22:23.671Z,6.93
2023-04-05T06:24:50.515Z,8.10
2023-04-05T06:27:17.385Z,10.77
2023-04-05T06:29:44.224Z,7.87
2023-04-05T06:32:11.026Z,8.47
2023-04-05T06:34:37.854Z,8.03
2023-04-05T06:37:04.829Z,8.20
2023-04-05T06:39:31.862Z,7.73
2023-04-05T06:41:58.882Z,8.17
2023-04-05T06:44:25.887Z,8.83
2023-04-05T06:46:52.749Z,8.70
2023-04-05T06:49:19.763Z,8.60
2023-04-05T06:51:46.664Z,9.13
2023-04-05T06:54:13.624Z,7.50
2023-04-05T06:56:40.637Z,6.80
2023-04-05T06:59:07.592Z,6.50
2023-04-05T07:01:34.580Z,6.53
2023-04-05T07:04:01.601Z,5.53
2023-04-05T07:06:28.471Z,6.13
2023-04-05T07:08:55.823Z,5.37
2023-04-05T07:11:22.687Z,5.80
2023-04-05T07:13:49.577Z,5.57
2023-04-05T07:16:18.149Z,5.40
2023-04-05T07:18:45.392Z,5.63
2023-04-05T07:21:12.305Z,5.53
2023-04-05T07:23:39.154Z,4.53
2023-04-05T07:26:07.389Z,4.77
2023-04-05T07:28:35.881Z,5.10
2023-04-05T07:31:05.284Z,5.37
2023-04-05T07:33:32.328Z,4.80
2023-04-05T07:35:59.528Z,4.60
2023-04-05T07:38:30.805Z,4.30
2023-04-05T07:40:58.737Z,4.20
2023-04-05T07:43:25.924Z,5.10
2023-04-05T07:46:01.113Z,4.68
2023-04-05T07:48:28.036Z,5.10
2023-04-05T07:50:55.097Z,4.07
2023-04-05T07:53:23.241Z,4.20
2023-04-05T07:55:50.955Z,4.53
2023-04-05T07:58:17.805Z,4.20
2023-04-05T08:00:45.011Z,4.45
2023-04-05T08:03:13.272Z,4.82
2023-04-05T08:05:40.151Z,4.65
2023-04-05T08:08:08.800Z,4.10
2023-04-05T08:10:39.995Z,4.93
2023-04-05T08:13:08.240Z,4.20
2023-04-05T08:15:36.003Z,4.10
2023-04-05T08:18:03.142Z,4.50
2023-04-05T08:20:30.143Z,4.25
2023-04-05T08:22:57.061Z,4.95
2023-04-05T08:25:24.369Z,4.20
2023-04-05T08:27:51.318Z,3.85
2023-04-05T08:30:19.921Z,4.25
2023-04-05T08:32:46.843Z,4.30
2023-04-05T08:35:13.692Z,4.28
2023-04-05T08:37:40.953Z,4.70
2023-04-05T08:40:08.726Z,4.35
2023-04-05T08:42:52.406Z,4.40
2023-04-05T08:45:22.815Z,4.90
2023-04-05T08:47:53.322Z,4.38
2023-04-05T08:50:20.516Z,5.20
2023-04-05T08:52:50.928Z,4.90
2023-04-05T08:55:18.161Z,4.45
2023-04-05T08:57:53.997Z,4.38
2023-04-05T09:00:21.421Z,4.50
2023-04-05T09:02:56.632Z,4.00
2023-04-05T09:05:24.912Z,4.30
2023-04-05T09:07:52.689Z,5.85
2023-04-05T09:10:21.030Z,4.38
2023-04-05T09:12:48.744Z,4.75
2023-04-05T09:15:17.784Z,4.20
2023-04-05T09:17:44.778Z,4.45
2023-04-05T09:20:11.666Z,4.45
2023-04-05T09:22:46.340Z,4.63
2023-04-05T09:25:31.878Z,4.18
2023-04-05T09:28:00.569Z,4.72
2023-04-05T09:30:28.092Z,4.40
2023-04-05T09:32:56.765Z,5.28
2023-04-05T09:35:28.306Z,4.90
2023-04-05T09:37:59.274Z,5.15
2023-04-05T09:40:48.461Z,5.28
2023-04-05T09:43:37.019Z,5.72
2023-04-05T09:46:03.882Z,5.47
2023-04-05T09:48:50.332Z,4.90
2023-04-05T09:51:19.579Z,5.18
2023-04-05T09:54:05.722Z,5.03
2023-04-05T09:56:38.859Z,5.32
2023-04-05T09:59:12.574Z,5.32
2023-04-05T10:01:44.699Z,5.13
2023-04-05T10:04:11.693Z,5.30
2023-04-05T10:06:43.040Z,4.88
2023-04-05T10:09:11.894Z,4.65
2023-04-05T10:11:39.447Z,4.70
2023-04-05T10:14:08.715Z,5.03
2023-04-05T10:16:53.841Z,4.40
2023-04-05T10:19:32.323Z,4.75
2023-04-05T10:22:02.827Z,5.00
2023-04-05T10:24:52.662Z,4.53
2023-04-05T10:27:32.968Z,5.00
2023-04-05T10:30:08.966Z,4.88
2023-04-05T10:33:03.980Z,4.65
2023-04-05T10:35:49.739Z,4.70
2023-04-05T10:38:29.821Z,5.15
2023-04-05T10:41:23.216Z,4.82
2023-04-05T10:43:56.908Z,4.75
2023-04-05T10:46:25.255Z,4.60
2023-04-05T10:49:11.950Z,4.93
2023-04-05T10:51:39.820Z,5.15
2023-04-05T10:54:10.410Z,4.70
2023-04-05T10:56:40.802Z,4.97
2023-04-05T10:59:08.534Z,6.22
2023-04-05T11:01:36.519Z,5.10
2023-04-05T11:04:17.157Z,4.07
2023-04-05T11:06:47.944Z,4.97
2023-04-05T11:09:16.968Z,4.43
2023-04-05T11:11:46.870Z,4.97
2023-04-05T11:14:39.270Z,5.18
2023-04-05T11:17:29.035Z,4.47
2023-04-05T11:20:06.450Z,5.07
2023-04-05T11:22:33.322Z,5.43
2023-04-05T11:25:03.193Z,5.10
2023-04-05T11:27:41.105Z,4.93
2023-04-05T11:30:08.904Z,5.22
2023-04-05T11:32:44.576Z,5.22
2023-04-05T11:35:25.434Z,5.60
2023-04-05T11:38:08.410Z,5.38
2023-04-05T11:40:39.345Z,5.07
2023-04-05T11:43:10.375Z,4.82
2023-04-05T11:45:46.531Z,4.82
2023-04-05T11:48:15.304Z,5.28
2023-04-05T11:50:42.568Z,4.82
2023-04-05T11:53:22.553Z,5.28
2023-04-05T11:55:52.056Z,5.22
2023-04-05T11:58:24.590Z,5.60
2023-04-05T12:01:19.282Z,5.82
2023-04-05T12:03:57.499Z,5.10
2023-04-05T12:06:26.398Z,5.28
2023-04-05T12:08:53.543Z,5.38
2023-04-05T12:11:31.289Z,5.32
2023-04-05T12:14:01.201Z,4.57
2023-04-05T12:16:29.468Z,5.20
2023-04-05T12:18:59.336Z,4.85
2023-04-05T12:21:28.222Z,5.28
2023-04-05T12:23:55.621Z,4.90
2023-04-05T12:26:23.162Z,5.18
2023-04-05T12:28:55.982Z,5.30
2023-04-05T12:31:42.767Z,5.25
2023-04-05T12:34:12.045Z,5.95
2023-04-05T12:36:43.597Z,5.25
2023-04-05T12:39:10.722Z,5.07
2023-04-05T12:41:38.137Z,5.00
2023-04-05T12:44:31.060Z,4.88
2023-04-05T12:47:03.002Z,5.53
2023-04-05T12:49:30.257Z,5.70
2023-04-05T12:52:02.989Z,5.30
2023-04-05T12:54:31.735Z,4.90
2023-04-05T12:56:59.005Z,5.38
2023-04-05T12:59:26.033Z,5.75
2023-04-05T13:01:53.076Z,5.50
2023-04-05T13:04:20.062Z,5.60
2023-04-05T13:06:47.853Z,5.07
2023-04-05T13:09:15.141Z,5.70
2023-04-05T13:11:42.025Z,5.75
2023-04-05T13:14:09.096Z,6.30
2023-04-05T13:16:36.047Z,5.15
2023-04-05T13:19:03.087Z,5.97
2023-04-05T13:21:29.945Z,5.90
2023-04-05T13:23:56.793Z,5.80
2023-04-05T13:26:23.676Z,6.03
2023-04-05T13:28:50.778Z,5.80
2023-04-05T13:31:17.748Z,5.70
2023-04-05T13:33:44.772Z,5.70
2023-04-05T13:36:12.608Z,5.47
2023-04-05T13:38:40.224Z,4.45
2023-04-05T13:41:07.144Z,4.35
2023-04-05T13:43:34.344Z,5.43
2023-04-05T13:46:01.312Z,4.80
2023-04-05T13:48:28.188Z,5.72
2023-04-05T13:50:55.593Z,5.75
2023-04-05T13:53:22.570Z,5.60
2023-04-05T13:55:49.477Z,5.70
2023-04-05T13:58:16.443Z,5.43
2023-04-05T14:00:43.581Z,5.88
2023-04-05T14:03:10.956Z,5.60
2023-04-05T14:05:37.924Z,5.18
2023-04-05T14:08:04.881Z,5.25
2023-04-05T14:10:32.498Z,5.43
2023-04-05T14:12:59.478Z,5.57
2023-04-05T14:15:27.607Z,5.30
2023-04-05T14:17:54.617Z,5.28
2023-04-05T14:20:21.615Z,5.30
2023-04-05T14:22:48.526Z,5.63
2023-04-05T14:25:15.461Z,5.40
2023-04-05T14:27:42.693Z,5.35
2023-04-05T14:30:11.389Z,5.45
2023-04-05T14:32:38.633Z,4.97
2023-04-05T14:35:06.400Z,4.93
2023-04-05T14:37:33.322Z,4.80
2023-04-05T14:40:00.284Z,4.95
2023-04-05T14:42:37.247Z,5.00
2023-04-05T14:45:09.536Z,4.53
2023-04-05T14:47:36.388Z,4.75
2023-04-05T14:50:03.543Z,5.00
2023-04-05T14:52:30.960Z,5.03
2023-04-05T14:54:57.932Z,4.68
2023-04-05T14:57:24.990Z,4.85
2023-04-05T14:59:51.842Z,4.68
2023-04-05T15:02:19.089Z,5.22
2023-04-05T15:04:46.052Z,4.82
2023-04-05T15:07:13.249Z,5.20
2023-04-05T15:09:40.140Z,4.70
2023-04-05T15:12:07.227Z,5.07
2023-04-05T15:14:34.188Z,4.80
2023-04-05T15:17:01.209Z,4.70
2023-04-05T15:19:28.220Z,4.82
2023-04-05T15:21:55.699Z,5.07
2023-04-05T15:24:22.599Z,4.53
2023-04-05T15:26:49.567Z,4.53
2023-04-05T15:29:16.542Z,4.95
2023-04-05T15:31:43.395Z,4.78
2023-04-05T15:34:10.522Z,5.00
2023-04-05T15:36:37.417Z,4.85
2023-04-05T15:39:05.289Z,4.82
2023-04-05T15:41:34.435Z,5.07
2023-04-05T15:44:01.807Z,5.10
2023-04-05T15:46:29.677Z,4.72
2023-04-05T15:48:56.726Z,4.78
2023-04-05T15:51:23.638Z,5.00
2023-04-05T15:53:51.188Z,5.43
2023-04-05T15:56:18.324Z,5.13
2023-04-05T15:58:45.528Z,5.20
2023-04-05T16:01:13.479Z,5.07
2023-04-05T16:03:40.701Z,5.00
2023-04-05T16:06:08.128Z,5.28
2023-04-05T16:08:35.074Z,4.90
2023-04-05T16:11:02.226Z,4.47
2023-04-05T16:13:29.373Z,5.28
2023-04-05T16:15:56.645Z,4.88
2023-04-05T16:18:24.371Z,4.97
2023-04-05T16:20:51.408Z,5.35
2023-04-05T16:23:18.296Z,5.13
2023-04-05T16:25:45.125Z,4.72
2023-04-05T16:28:12.067Z,5.10
2023-04-05T16:30:39.225Z,4.80
2023-04-05T16:33:06.543Z,4.90
2023-04-05T16:35:34.419Z,5.35
2023-04-05T16:38:02.668Z,5.13
2023-04-05T16:40:30.075Z,4.93
2023-04-05T16:42:57.175Z,5.05
2023-04-05T16:45:24.140Z,5.28
2023-04-05T16:47:51.195Z,5.18
2023-04-05T16:50:18.259Z,4.63
2023-04-05T16:52:46.055Z,4.85
2023-04-05T16:55:13.169Z,5.20
2023-04-05T16:57:40.451Z,5.55
2023-04-05T17:00:09.068Z,5.03
2023-04-05T17:02:36.450Z,5.68
2023-04-05T17:05:03.814Z,5.03
2023-04-05T17:07:30.782Z,4.88
2023-04-05T17:09:58.432Z,4.90
2023-04-05T17:12:25.670Z,5.00
2023-04-05T17:14:52.683Z,5.00
2023-04-05T17:17:19.641Z,5.03
2023-04-05T17:19:46.652Z,4.72
2023-04-05T17:22:14.405Z,5.15
2023-04-05T17:24:41.400Z,5.00
2023-04-05T17:27:08.513Z,4.60
2023-04-05T17:29:35.664Z,4.47
2023-04-05T17:32:02.905Z,4.57
2023-04-05T17:34:30.129Z,4.57
2023-04-05T17:36:57.025Z,4.63
2023-04-05T17:39:23.968Z,4.68
2023-04-05T17:41:51.028Z,5.05
2023-04-05T17:44:19.058Z,4.85
2023-04-05T17:46:53.977Z,4.70
2023-04-05T17:49:24.414Z,4.70
2023-04-05T17:51:51.478Z,4.45
2023-04-05T17:54:18.610Z,4.57
2023-04-05T17:56:46.059Z,4.32
2023-04-05T17:59:13.068Z,4.38
2023-04-05T18:01:40.084Z,4.50
2023-04-05T18:04:08.815Z,4.68
2023-04-05T18:06:38.146Z,5.05
2023-04-05T18:09:05.695Z,4.57
2023-04-05T18:11:32.936Z,5.15
2023-04-05T18:13:59.971Z,6.25
2023-04-05T18:16:28.129Z,6.63
2023-04-05T18:18:55.424Z,7.35
2023-04-05T18:21:22.724Z,7.57
2023-04-05T18:23:49.718Z,7.45
2023-04-05T18:26:18.514Z,6.40
2023-04-05T18:28:49.094Z,6.53
2023-04-05T18:31:16.330Z,6.17
2023-04-05T18:33:43.358Z,6.27
2023-04-05T18:36:10.512Z,6.73
2023-04-05T18:38:37.529Z,6.37
2023-04-05T18:41:05.177Z,6.70
2023-04-05T18:43:32.272Z,6.23
2023-04-05T18:45:59.340Z,7.23
2023-04-05T18:48:26.569Z,9.80
2023-04-05T18:50:54.260Z,11.40
2023-04-05T18:53:22.168Z,11.60
2023-04-05T18:55:54.475Z,9.93
2023-04-05T18:58:21.721Z,11.13
2023-04-05T19:00:49.266Z,7.07
2023-04-05T19:03:16.725Z,10.70
2023-04-05T19:05:53.314Z,9.47
2023-04-05T19:08:20.427Z,9.57
2023-04-05T19:10:47.485Z,9.07
2023-04-05T19:13:14.610Z,10.30
2023-04-05T19:15:41.938Z,10.07
2023-04-05T19:18:09.149Z,12.03
2023-04-05T19:20:36.220Z,11.80
2023-04-05T19:23:03.326Z,12.63
2023-04-05T19:25:30.732Z,12.27
2023-04-05T19:27:57.923Z,16.47
2023-04-05T19:30:25.065Z,12.90
2023-04-05T19:32:54.916Z,12.37
2023-04-05T19:35:22.180Z,13.47
2023-04-05T19:37:49.181Z,12.53
2023-04-05T19:40:16.488Z,12.33
2023-04-05T19:42:47.588Z,12.00
2023-04-05T19:45:28.538Z,10.97
2023-04-05T19:47:58.275Z,9.63
2023-04-05T19:50:45.700Z,9.90
2023-04-05T19:53:42.832Z,10.30
2023-04-05T19:56:29.915Z,10.30
2023-04-05T19:59:02.176Z,12.23
2023-04-05T20:01:33.605Z,14.27
2023-04-05T20:04:07.566Z,15.13
2023-04-05T20:06:34.893Z,13.13
2023-04-05T20:09:08.815Z,9.50
2023-04-05T20:11:36.024Z,9.77
2023-04-05T20:14:05.530Z,11.50
2023-04-05T20:16:35.901Z,12.60
2023-04-05T20:19:07.242Z,15.53
2023-04-05T20:21:35.431Z,18.70
2023-04-05T20:24:03.103Z,17.37
2023-04-05T20:26:32.564Z,11.40
2023-04-05T20:29:02.802Z,11.03
2023-04-05T20:31:33.644Z,10.70
2023-04-05T20:34:14.854Z,11.17
2023-04-05T20:36:54.019Z,10.97
2023-04-05T20:39:23.576Z,11.33
2023-04-05T20:41:50.821Z,11.77
2023-04-05T20:44:18.265Z,10.90
2023-04-05T20:46:45.420Z,10.47
2023-04-05T20:49:12.784Z,11.30
2023-04-05T20:51:41.903Z,10.57
2023-04-05T20:54:09.759Z,9.60
2023-04-05T20:56:36.808Z,9.40
2023-04-05T20:59:04.057Z,9.23
2023-04-05T21:01:31.424Z,10.53
2023-04-05T21:03:58.565Z,11.97
2023-04-05T21:06:25.573Z,12.77
2023-04-05T21:08:52.606Z,13.90
2023-04-05T21:11:19.585Z,13.13
2023-04-05T21:13:46.692Z,13.67
2023-04-05T21:16:13.741Z,11.43
2023-04-05T21:18:40.814Z,10.63
2023-04-05T21:21:08.679Z,12.93
2023-04-05T21:23:35.775Z,12.53
2023-04-05T21:26:04.499Z,12.27
2023-04-05T21:28:31.798Z,11.90
2023-04-05T21:30:58.872Z,11.33
2023-04-05T21:33:26.014Z,10.67
2023-04-05T21:35:53.161Z,10.93
2023-04-05T21:38:20.373Z,10.80
2023-04-05T21:40:50.104Z,10.70
2023-04-05T21:43:17.654Z,12.00
2023-04-05T21:45:45.841Z,11.80
2023-04-05T21:48:12.969Z,11.70
2023-04-05T21:50:40.097Z,12.50
2023-04-05T21:53:09.276Z,12.57
2023-04-05T21:55:36.332Z,12.37
2023-04-05T21:58:03.438Z,12.83
2023-04-05T22:00:30.515Z,12.33
2023-04-05T22:02:57.594Z,11.10
2023-04-05T22:05:34.525Z,10.40
2023-04-05T22:08:05.937Z,11.50
2023-04-05T22:10:33.494Z,10.80
2023-04-05T22:13:00.556Z,10.13
2023-04-05T22:15:27.853Z,10.27
2023-04-05T22:17:54.972Z,9.97
2023-04-05T22:20:22.052Z,10.27
2023-04-05T22:22:49.059Z,10.03
2023-04-05T22:25:16.482Z,10.97
2023-04-05T22:27:43.485Z,10.30
2023-04-05T22:30:11.104Z,10.00
2023-04-05T22:32:38.289Z,9.77
2023-04-05T22:35:06.373Z,9.13
2023-04-05T22:37:36.502Z,10.70
2023-04-05T22:40:04.879Z,10.33
2023-04-05T22:42:32.133Z,10.17
2023-04-05T22:44:59.303Z,10.10
2023-04-05T22:47:26.534Z,10.03
2023-04-05T22:49:53.719Z,9.90
2023-04-05T22:52:21.030Z,10.00
2023-04-05T22:54:48.055Z,9.37
2023-04-05T22:57:15.089Z,10.17
2023-04-05T22:59:42.281Z,9.80
2023-04-05T23:02:10.032Z,8.83
2023-04-05T23:04:37.100Z,9.77
2023-04-05T23:07:04.232Z,9.13
2023-04-05T23:09:31.436Z,9.83
2023-04-05T23:11:58.421Z,10.57
2023-04-05T23:14:25.716Z,9.80
2023-04-05T23:16:52.730Z,10.37
2023-04-05T23:19:19.735Z,10.60
2023-04-05T23:21:46.703Z,9.43
2023-04-05T23:24:13.902Z,10.67
2023-04-05T23:26:40.925Z,8.97
2023-04-05T23:29:08.229Z,10.43
2023-04-05T23:31:35.518Z,9.40
2023-04-05T23:34:02.528Z,8.80
2023-04-05T23:36:29.512Z,8.07
2023-04-05T23:38:58.627Z,8.97
2023-04-05T23:41:25.714Z,9.03
2023-04-05T23:43:52.849Z,9.77
2023-04-05T23:46:19.957Z,11.27
2023-04-05T23:48:47.213Z,10.93
2023-04-05T23:51:14.202Z,9.83
2023-04-05T23:53:41.355Z,10.40
2023-04-05T23:56:08.994Z,10.33
2023-04-05T23:58:36.132Z,10.67
